Terminal Aerodrome Forecast
Issued by NWS El Paso, TX

Home | Current Version | Previous Version | Text Only | Print | Product List | Glossary On
Versions: 1 2 3 4 5 6 7 8 9 10 11 12 13
760
FTUS44 KEPZ 230520
TAFELP
TAF
KELP 230520Z 2306/2406 26008KT P6SM SKC
     FM231200 19006KT P6SM FEW250
     FM231800 23013G23KT P6SM FEW140 SCT250
     FM240200 26015G25KT P6SM SCT140 BKN250=

USA.gov is the U.S. government's official web portal to all federal, state and local government web resources and services.